sensor_id;sensor_type;location;lat;lon;timestamp;P1;durP1;ratioP1;P2;durP2;ratioP2
8777;SDS011;4425;50.872;4.712;2022-12-18T00:00:39;51.60;;;35.83;;
8777;SDS011;4425;50.872;4.712;2022-12-18T00:03:07;50.23;;;35.43;;
8777;SDS011;4425;50.872;4.712;2022-12-18T00:05:36;51.77;;;36.13;;
8777;SDS011;4425;50.872;4.712;2022-12-18T00:08:05;50.63;;;35.87;;
8777;SDS011;4425;50.872;4.712;2022-12-18T00:10:32;49.53;;;34.93;;
8777;SDS011;4425;50.872;4.712;2022-12-18T00:12:59;48.27;;;35.33;;
8777;SDS011;4425;50.872;4.712;2022-12-18T00:15:33;51.87;;;35.77;;
8777;SDS011;4425;50.872;4.712;2022-12-18T00:18:02;48.87;;;36.23;;
8777;SDS011;4425;50.872;4.712;2022-12-18T00:20:29;53.47;;;35.83;;
8777;SDS011;4425;50.872;4.712;2022-12-18T00:22:58;50.97;;;35.60;;
8777;SDS011;4425;50.872;4.712;2022-12-18T00:25:27;52.67;;;36.83;;
8777;SDS011;4425;50.872;4.712;2022-12-18T00:27:54;52.33;;;36.10;;
8777;SDS011;4425;50.872;4.712;2022-12-18T00:30:21;51.53;;;36.67;;
8777;SDS011;4425;50.872;4.712;2022-12-18T00:32:49;51.87;;;35.60;;
8777;SDS011;4425;50.872;4.712;2022-12-18T00:35:18;51.73;;;36.33;;
8777;SDS011;4425;50.872;4.712;2022-12-18T00:37:45;53.97;;;35.93;;
8777;SDS011;4425;50.872;4.712;2022-12-18T00:40:13;48.40;;;34.87;;
8777;SDS011;4425;50.872;4.712;2022-12-18T00:42:43;50.73;;;35.20;;
8777;SDS011;4425;50.872;4.712;2022-12-18T00:45:21;51.27;;;35.37;;
8777;SDS011;4425;50.872;4.712;2022-12-18T00:47:48;52.40;;;35.13;;
8777;SDS011;4425;50.872;4.712;2022-12-18T00:50:16;49.37;;;36.00;;
8777;SDS011;4425;50.872;4.712;2022-12-18T00:52:43;51.13;;;36.27;;
8777;SDS011;4425;50.872;4.712;2022-12-18T00:55:16;47.63;;;34.27;;
8777;SDS011;4425;50.872;4.712;2022-12-18T00:57:43;47.70;;;34.83;;
8777;SDS011;4425;50.872;4.712;2022-12-18T01:00:13;47.73;;;33.47;;
8777;SDS011;4425;50.872;4.712;2022-12-18T01:02:42;50.30;;;34.57;;
8777;SDS011;4425;50.872;4.712;2022-12-18T01:05:09;54.53;;;35.70;;
8777;SDS011;4425;50.872;4.712;2022-12-18T01:07:40;49.87;;;34.20;;
8777;SDS011;4425;50.872;4.712;2022-12-18T01:10:09;49.63;;;34.50;;
8777;SDS011;4425;50.872;4.712;2022-12-18T01:12:39;50.87;;;34.27;;
8777;SDS011;4425;50.872;4.712;2022-12-18T01:15:06;49.43;;;35.23;;
8777;SDS011;4425;50.872;4.712;2022-12-18T01:17:34;51.07;;;36.27;;
8777;SDS011;4425;50.872;4.712;2022-12-18T01:20:01;49.03;;;34.77;;
8777;SDS011;4425;50.872;4.712;2022-12-18T01:22:28;51.57;;;34.63;;
8777;SDS011;4425;50.872;4.712;2022-12-18T01:24:56;48.60;;;33.47;;
8777;SDS011;4425;50.872;4.712;2022-12-18T01:27:23;48.90;;;34.23;;
8777;SDS011;4425;50.872;4.712;2022-12-18T01:29:52;50.67;;;34.87;;
8777;SDS011;4425;50.872;4.712;2022-12-18T01:32:19;52.67;;;37.00;;
8777;SDS011;4425;50.872;4.712;2022-12-18T01:34:47;50.83;;;36.20;;
8777;SDS011;4425;50.872;4.712;2022-12-18T01:37:14;51.53;;;35.77;;
8777;SDS011;4425;50.872;4.712;2022-12-18T01:39:42;50.73;;;35.57;;
8777;SDS011;4425;50.872;4.712;2022-12-18T01:42:10;47.40;;;34.33;;
8777;SDS011;4425;50.872;4.712;2022-12-18T01:45:01;49.70;;;34.00;;
8777;SDS011;4425;50.872;4.712;2022-12-18T01:47:34;50.17;;;33.87;;
8777;SDS011;4425;50.872;4.712;2022-12-18T01:50:06;46.30;;;32.90;;
8777;SDS011;4425;50.872;4.712;2022-12-18T01:52:35;47.17;;;32.20;;
8777;SDS011;4425;50.872;4.712;2022-12-18T01:55:04;48.33;;;33.00;;
8777;SDS011;4425;50.872;4.712;2022-12-18T01:57:32;47.27;;;32.27;;
8777;SDS011;4425;50.872;4.712;2022-12-18T02:00:03;47.10;;;32.87;;
8777;SDS011;4425;50.872;4.712;2022-12-18T02:02:33;45.40;;;31.70;;
8777;SDS011;4425;50.872;4.712;2022-12-18T02:05:00;48.43;;;32.40;;
8777;SDS011;4425;50.872;4.712;2022-12-18T02:07:32;46.90;;;32.70;;
8777;SDS011;4425;50.872;4.712;2022-12-18T02:10:09;46.90;;;31.60;;
8777;SDS011;4425;50.872;4.712;2022-12-18T02:12:42;45.93;;;31.03;;
8777;SDS011;4425;50.872;4.712;2022-12-18T02:15:19;41.73;;;30.20;;
8777;SDS011;4425;50.872;4.712;2022-12-18T02:17:52;44.70;;;30.77;;
8777;SDS011;4425;50.872;4.712;2022-12-18T02:23:04;40.47;;;29.10;;
8777;SDS011;4425;50.872;4.712;2022-12-18T02:28:41;42.87;;;29.97;;
8777;SDS011;4425;50.872;4.712;2022-12-18T02:31:21;41.17;;;29.30;;
8777;SDS011;4425;50.872;4.712;2022-12-18T02:33:52;43.43;;;29.83;;
8777;SDS011;4425;50.872;4.712;2022-12-18T02:36:23;45.37;;;28.87;;
8777;SDS011;4425;50.872;4.712;2022-12-18T02:38:53;46.13;;;30.67;;
8777;SDS011;4425;50.872;4.712;2022-12-18T02:41:26;42.77;;;29.13;;
8777;SDS011;4425;50.872;4.712;2022-12-18T02:43:55;41.17;;;29.47;;
8777;SDS011;4425;50.872;4.712;2022-12-18T02:46:25;42.97;;;29.23;;
8777;SDS011;4425;50.872;4.712;2022-12-18T02:48:58;41.83;;;28.57;;
8777;SDS011;4425;50.872;4.712;2022-12-18T02:51:33;42.03;;;29.03;;
8777;SDS011;4425;50.872;4.712;2022-12-18T02:54:07;42.43;;;29.40;;
8777;SDS011;4425;50.872;4.712;2022-12-18T02:56:44;40.37;;;27.90;;
8777;SDS011;4425;50.872;4.712;2022-12-18T02:59:17;38.40;;;28.20;;
8777;SDS011;4425;50.872;4.712;2022-12-18T03:01:51;39.33;;;28.10;;
8777;SDS011;4425;50.872;4.712;2022-12-18T03:04:26;39.47;;;27.50;;
8777;SDS011;4425;50.872;4.712;2022-12-18T03:06:59;41.60;;;28.73;;
8777;SDS011;4425;50.872;4.712;2022-12-18T03:09:31;40.73;;;28.00;;
8777;SDS011;4425;50.872;4.712;2022-12-18T03:12:07;39.13;;;27.67;;
8777;SDS011;4425;50.872;4.712;2022-12-18T03:14:53;37.90;;;26.87;;
8777;SDS011;4425;50.872;4.712;2022-12-18T03:17:26;36.13;;;26.20;;
8777;SDS011;4425;50.872;4.712;2022-12-18T03:19:56;40.60;;;28.40;;
8777;SDS011;4425;50.872;4.712;2022-12-18T03:22:29;41.43;;;26.43;;
8777;SDS011;4425;50.872;4.712;2022-12-18T03:25:00;38.40;;;27.47;;
8777;SDS011;4425;50.872;4.712;2022-12-18T03:27:34;36.43;;;26.50;;
8777;SDS011;4425;50.872;4.712;2022-12-18T03:30:05;37.27;;;27.33;;
8777;SDS011;4425;50.872;4.712;2022-12-18T03:32:36;36.50;;;26.77;;
8777;SDS011;4425;50.872;4.712;2022-12-18T03:35:09;38.17;;;26.97;;
8777;SDS011;4425;50.872;4.712;2022-12-18T03:37:39;37.90;;;27.13;;
8777;SDS011;4425;50.872;4.712;2022-12-18T03:40:07;41.87;;;28.63;;
8777;SDS011;4425;50.872;4.712;2022-12-18T03:42:39;39.90;;;27.53;;
8777;SDS011;4425;50.872;4.712;2022-12-18T03:45:13;40.33;;;27.83;;
8777;SDS011;4425;50.872;4.712;2022-12-18T03:47:49;39.23;;;27.07;;
8777;SDS011;4425;50.872;4.712;2022-12-18T03:50:26;37.97;;;27.07;;
8777;SDS011;4425;50.872;4.712;2022-12-18T03:53:01;36.93;;;26.17;;
8777;SDS011;4425;50.872;4.712;2022-12-18T03:55:39;41.23;;;26.90;;
8777;SDS011;4425;50.872;4.712;2022-12-18T03:58:09;35.70;;;26.13;;
8777;SDS011;4425;50.872;4.712;2022-12-18T04:00:39;37.03;;;25.60;;
8777;SDS011;4425;50.872;4.712;2022-12-18T04:03:07;35.97;;;26.83;;
8777;SDS011;4425;50.872;4.712;2022-12-18T04:05:36;33.13;;;25.40;;
8777;SDS011;4425;50.872;4.712;2022-12-18T04:08:05;34.63;;;25.70;;
8777;SDS011;4425;50.872;4.712;2022-12-18T04:10:33;35.77;;;26.10;;
8777;SDS011;4425;50.872;4.712;2022-12-18T04:13:01;36.43;;;27.03;;
8777;SDS011;4425;50.872;4.712;2022-12-18T04:15:32;36.73;;;25.83;;
8777;SDS011;4425;50.872;4.712;2022-12-18T04:18:01;36.47;;;24.47;;
8777;SDS011;4425;50.872;4.712;2022-12-18T04:20:29;33.00;;;24.67;;
8777;SDS011;4425;50.872;4.712;2022-12-18T04:23:00;37.00;;;25.30;;
8777;SDS011;4425;50.872;4.712;2022-12-18T04:25:27;36.53;;;24.37;;
8777;SDS011;4425;50.872;4.712;2022-12-18T04:27:54;36.40;;;24.13;;
8777;SDS011;4425;50.872;4.712;2022-12-18T04:30:21;35.03;;;24.93;;
8777;SDS011;4425;50.872;4.712;2022-12-18T04:32:51;34.10;;;24.77;;
8777;SDS011;4425;50.872;4.712;2022-12-18T04:35:20;36.17;;;25.13;;
8777;SDS011;4425;50.872;4.712;2022-12-18T04:37:47;33.33;;;23.77;;
8777;SDS011;4425;50.872;4.712;2022-12-18T04:40:15;30.83;;;23.23;;
8777;SDS011;4425;50.872;4.712;2022-12-18T04:42:43;33.30;;;23.43;;
8777;SDS011;4425;50.872;4.712;2022-12-18T04:45:10;32.60;;;23.57;;
8777;SDS011;4425;50.872;4.712;2022-12-18T04:47:38;33.47;;;24.00;;
8777;SDS011;4425;50.872;4.712;2022-12-18T04:50:09;32.23;;;23.20;;
8777;SDS011;4425;50.872;4.712;2022-12-18T04:52:37;32.80;;;24.17;;
8777;SDS011;4425;50.872;4.712;2022-12-18T04:55:06;31.57;;;22.60;;
8777;SDS011;4425;50.872;4.712;2022-12-18T04:57:35;33.00;;;22.93;;
8777;SDS011;4425;50.872;4.712;2022-12-18T05:00:03;31.03;;;22.93;;
8777;SDS011;4425;50.872;4.712;2022-12-18T05:02:31;32.23;;;23.67;;
8777;SDS011;4425;50.872;4.712;2022-12-18T05:04:58;30.50;;;23.57;;
8777;SDS011;4425;50.872;4.712;2022-12-18T05:07:29;34.33;;;22.73;;
8777;SDS011;4425;50.872;4.712;2022-12-18T05:09:56;34.13;;;23.90;;
8777;SDS011;4425;50.872;4.712;2022-12-18T05:12:24;33.00;;;23.87;;
8777;SDS011;4425;50.872;4.712;2022-12-18T05:14:51;29.77;;;22.73;;
8777;SDS011;4425;50.872;4.712;2022-12-18T05:17:21;29.47;;;22.27;;
8777;SDS011;4425;50.872;4.712;2022-12-18T05:19:48;30.27;;;22.00;;
8777;SDS011;4425;50.872;4.712;2022-12-18T05:22:15;30.90;;;22.23;;
8777;SDS011;4425;50.872;4.712;2022-12-18T05:24:45;32.10;;;22.70;;
8777;SDS011;4425;50.872;4.712;2022-12-18T05:27:12;32.30;;;23.10;;
8777;SDS011;4425;50.872;4.712;2022-12-18T05:29:39;31.90;;;23.60;;
8777;SDS011;4425;50.872;4.712;2022-12-18T05:32:06;31.17;;;22.80;;
8777;SDS011;4425;50.872;4.712;2022-12-18T05:34:33;31.00;;;22.03;;
8777;SDS011;4425;50.872;4.712;2022-12-18T05:37:02;31.30;;;22.20;;
8777;SDS011;4425;50.872;4.712;2022-12-18T05:39:30;31.73;;;22.83;;
8777;SDS011;4425;50.872;4.712;2022-12-18T05:41:58;33.27;;;21.87;;
8777;SDS011;4425;50.872;4.712;2022-12-18T05:44:25;30.03;;;22.47;;
8777;SDS011;4425;50.872;4.712;2022-12-18T05:46:52;28.80;;;21.03;;
8777;SDS011;4425;50.872;4.712;2022-12-18T05:49:20;30.73;;;22.07;;
8777;SDS011;4425;50.872;4.712;2022-12-18T05:51:47;30.07;;;22.10;;
8777;SDS011;4425;50.872;4.712;2022-12-18T05:54:14;30.53;;;21.57;;
8777;SDS011;4425;50.872;4.712;2022-12-18T05:56:41;30.67;;;22.10;;
8777;SDS011;4425;50.872;4.712;2022-12-18T06:01:42;29.43;;;20.93;;
8777;SDS011;4425;50.872;4.712;2022-12-18T06:04:09;29.37;;;22.00;;
8777;SDS011;4425;50.872;4.712;2022-12-18T06:06:39;34.30;;;22.43;;
8777;SDS011;4425;50.872;4.712;2022-12-18T06:09:09;30.87;;;22.00;;
8777;SDS011;4425;50.872;4.712;2022-12-18T06:11:39;28.83;;;21.20;;
8777;SDS011;4425;50.872;4.712;2022-12-18T06:14:06;29.87;;;21.83;;
8777;SDS011;4425;50.872;4.712;2022-12-18T06:16:41;29.93;;;20.97;;
8777;SDS011;4425;50.872;4.712;2022-12-18T06:19:13;31.90;;;22.27;;
8777;SDS011;4425;50.872;4.712;2022-12-18T06:21:41;32.90;;;22.00;;
8777;SDS011;4425;50.872;4.712;2022-12-18T06:24:10;31.87;;;22.87;;
8777;SDS011;4425;50.872;4.712;2022-12-18T06:26:37;32.33;;;22.60;;
8777;SDS011;4425;50.872;4.712;2022-12-18T06:31:36;30.30;;;21.83;;
8777;SDS011;4425;50.872;4.712;2022-12-18T06:34:05;34.27;;;22.77;;
8777;SDS011;4425;50.872;4.712;2022-12-18T06:36:33;31.43;;;22.00;;
8777;SDS011;4425;50.872;4.712;2022-12-18T06:39:00;28.80;;;21.63;;
8777;SDS011;4425;50.872;4.712;2022-12-18T06:41:28;31.60;;;22.10;;
8777;SDS011;4425;50.872;4.712;2022-12-18T06:43:58;29.40;;;21.00;;
8777;SDS011;4425;50.872;4.712;2022-12-18T06:46:26;30.50;;;21.43;;
8777;SDS011;4425;50.872;4.712;2022-12-18T06:48:56;33.70;;;22.73;;
8777;SDS011;4425;50.872;4.712;2022-12-18T06:51:23;27.93;;;21.60;;
8777;SDS011;4425;50.872;4.712;2022-12-18T06:53:50;31.03;;;23.00;;
8777;SDS011;4425;50.872;4.712;2022-12-18T06:56:19;31.30;;;22.20;;
8777;SDS011;4425;50.872;4.712;2022-12-18T06:58:47;30.27;;;21.87;;
8777;SDS011;4425;50.872;4.712;2022-12-18T07:01:14;31.87;;;21.80;;
8777;SDS011;4425;50.872;4.712;2022-12-18T07:03:41;32.90;;;21.90;;
8777;SDS011;4425;50.872;4.712;2022-12-18T07:06:14;38.40;;;22.73;;
8777;SDS011;4425;50.872;4.712;2022-12-18T07:08:44;32.50;;;21.70;;
8777;SDS011;4425;50.872;4.712;2022-12-18T07:11:12;32.10;;;21.13;;
8777;SDS011;4425;50.872;4.712;2022-12-18T07:13:40;33.00;;;22.20;;
8777;SDS011;4425;50.872;4.712;2022-12-18T07:16:09;32.23;;;22.60;;
8777;SDS011;4425;50.872;4.712;2022-12-18T07:18:38;29.50;;;21.17;;
8777;SDS011;4425;50.872;4.712;2022-12-18T07:21:06;33.30;;;21.43;;
8777;SDS011;4425;50.872;4.712;2022-12-18T07:23:36;31.10;;;21.83;;
8777;SDS011;4425;50.872;4.712;2022-12-18T07:26:07;32.17;;;21.93;;
8777;SDS011;4425;50.872;4.712;2022-12-18T07:28:37;33.53;;;21.73;;
8777;SDS011;4425;50.872;4.712;2022-12-18T07:31:06;30.50;;;21.73;;
8777;SDS011;4425;50.872;4.712;2022-12-18T07:33:34;35.03;;;22.67;;
8777;SDS011;4425;50.872;4.712;2022-12-18T07:36:03;33.23;;;21.03;;
8777;SDS011;4425;50.872;4.712;2022-12-18T07:38:33;30.27;;;21.23;;
8777;SDS011;4425;50.872;4.712;2022-12-18T07:41:05;35.50;;;21.83;;
8777;SDS011;4425;50.872;4.712;2022-12-18T07:43:34;29.10;;;20.40;;
8777;SDS011;4425;50.872;4.712;2022-12-18T07:46:04;30.33;;;21.47;;
8777;SDS011;4425;50.872;4.712;2022-12-18T07:48:35;29.40;;;21.73;;
8777;SDS011;4425;50.872;4.712;2022-12-18T07:51:06;31.53;;;21.60;;
8777;SDS011;4425;50.872;4.712;2022-12-18T07:53:36;31.97;;;22.13;;
8777;SDS011;4425;50.872;4.712;2022-12-18T07:56:06;31.97;;;21.50;;
8777;SDS011;4425;50.872;4.712;2022-12-18T07:58:38;30.07;;;20.23;;
8777;SDS011;4425;50.872;4.712;2022-12-18T08:01:06;32.80;;;21.37;;
8777;SDS011;4425;50.872;4.712;2022-12-18T08:03:34;36.43;;;21.70;;
8777;SDS011;4425;50.872;4.712;2022-12-18T08:06:11;32.73;;;21.70;;
8777;SDS011;4425;50.872;4.712;2022-12-18T08:08:40;32.27;;;21.97;;
8777;SDS011;4425;50.872;4.712;2022-12-18T08:11:07;34.00;;;21.57;;
8777;SDS011;4425;50.872;4.712;2022-12-18T08:13:35;33.67;;;21.37;;
8777;SDS011;4425;50.872;4.712;2022-12-18T08:16:03;32.53;;;22.30;;
8777;SDS011;4425;50.872;4.712;2022-12-18T08:18:32;33.47;;;22.10;;
8777;SDS011;4425;50.872;4.712;2022-12-18T08:21:07;29.87;;;21.03;;
8777;SDS011;4425;50.872;4.712;2022-12-18T08:23:35;32.27;;;21.13;;
8777;SDS011;4425;50.872;4.712;2022-12-18T08:26:05;32.43;;;21.00;;
8777;SDS011;4425;50.872;4.712;2022-12-18T08:28:32;30.60;;;21.47;;
8777;SDS011;4425;50.872;4.712;2022-12-18T08:31:00;33.33;;;21.70;;
8777;SDS011;4425;50.872;4.712;2022-12-18T08:33:27;28.10;;;20.10;;
8777;SDS011;4425;50.872;4.712;2022-12-18T08:35:54;31.03;;;20.70;;
8777;SDS011;4425;50.872;4.712;2022-12-18T08:38:24;28.33;;;19.13;;
8777;SDS011;4425;50.872;4.712;2022-12-18T08:40:57;30.53;;;19.67;;
8777;SDS011;4425;50.872;4.712;2022-12-18T08:43:27;27.90;;;19.53;;
8777;SDS011;4425;50.872;4.712;2022-12-18T08:46:12;27.80;;;19.70;;
8777;SDS011;4425;50.872;4.712;2022-12-18T08:48:39;31.00;;;20.57;;
8777;SDS011;4425;50.872;4.712;2022-12-18T08:51:08;27.03;;;19.43;;
8777;SDS011;4425;50.872;4.712;2022-12-18T08:53:38;25.33;;;19.63;;
8777;SDS011;4425;50.872;4.712;2022-12-18T08:56:07;27.03;;;19.87;;
8777;SDS011;4425;50.872;4.712;2022-12-18T08:58:37;29.47;;;19.90;;
8777;SDS011;4425;50.872;4.712;2022-12-18T09:01:05;26.73;;;19.03;;
8777;SDS011;4425;50.872;4.712;2022-12-18T09:03:34;27.90;;;20.23;;
8777;SDS011;4425;50.872;4.712;2022-12-18T09:06:12;26.33;;;19.70;;
8777;SDS011;4425;50.872;4.712;2022-12-18T09:08:42;27.20;;;18.43;;
8777;SDS011;4425;50.872;4.712;2022-12-18T09:11:14;26.33;;;19.03;;
8777;SDS011;4425;50.872;4.712;2022-12-18T09:13:50;23.13;;;18.03;;
8777;SDS011;4425;50.872;4.712;2022-12-18T09:16:19;23.30;;;17.60;;
8777;SDS011;4425;50.872;4.712;2022-12-18T09:18:47;26.03;;;18.93;;
8777;SDS011;4425;50.872;4.712;2022-12-18T09:21:15;23.43;;;18.20;;
8777;SDS011;4425;50.872;4.712;2022-12-18T09:23:44;24.07;;;18.10;;
8777;SDS011;4425;50.872;4.712;2022-12-18T09:26:15;23.07;;;18.17;;
8777;SDS011;4425;50.872;4.712;2022-12-18T09:28:42;23.03;;;17.53;;
8777;SDS011;4425;50.872;4.712;2022-12-18T09:31:11;22.33;;;17.50;;
8777;SDS011;4425;50.872;4.712;2022-12-18T09:33:41;23.87;;;18.37;;
8777;SDS011;4425;50.872;4.712;2022-12-18T09:36:15;22.83;;;17.50;;
8777;SDS011;4425;50.872;4.712;2022-12-18T09:38:43;21.60;;;17.23;;
8777;SDS011;4425;50.872;4.712;2022-12-18T09:41:15;21.50;;;17.57;;
8777;SDS011;4425;50.872;4.712;2022-12-18T09:43:58;23.63;;;17.77;;
8777;SDS011;4425;50.872;4.712;2022-12-18T09:46:32;23.97;;;17.73;;
8777;SDS011;4425;50.872;4.712;2022-12-18T09:49:05;20.63;;;16.53;;
8777;SDS011;4425;50.872;4.712;2022-12-18T09:51:39;20.93;;;16.67;;
8777;SDS011;4425;50.872;4.712;2022-12-18T09:54:11;26.10;;;18.00;;
8777;SDS011;4425;50.872;4.712;2022-12-18T09:56:44;18.77;;;16.30;;
8777;SDS011;4425;50.872;4.712;2022-12-18T09:59:15;19.57;;;16.73;;
8777;SDS011;4425;50.872;4.712;2022-12-18T10:01:50;18.43;;;15.53;;
8777;SDS011;4425;50.872;4.712;2022-12-18T10:04:18;18.13;;;15.43;;
8777;SDS011;4425;50.872;4.712;2022-12-18T10:06:46;20.47;;;16.40;;
8777;SDS011;4425;50.872;4.712;2022-12-18T10:09:21;20.83;;;15.80;;
8777;SDS011;4425;50.872;4.712;2022-12-18T10:11:55;17.27;;;15.13;;
8777;SDS011;4425;50.872;4.712;2022-12-18T10:14:32;18.20;;;14.80;;
8777;SDS011;4425;50.872;4.712;2022-12-18T10:17:11;20.10;;;15.20;;
8777;SDS011;4425;50.872;4.712;2022-12-18T10:19:45;19.77;;;15.70;;
8777;SDS011;4425;50.872;4.712;2022-12-18T10:22:36;19.17;;;15.47;;
8777;SDS011;4425;50.872;4.712;2022-12-18T10:25:15;18.10;;;15.07;;
8777;SDS011;4425;50.872;4.712;2022-12-18T10:27:48;19.03;;;15.00;;
8777;SDS011;4425;50.872;4.712;2022-12-18T10:30:20;23.43;;;15.27;;
8777;SDS011;4425;50.872;4.712;2022-12-18T10:32:52;18.80;;;14.60;;
8777;SDS011;4425;50.872;4.712;2022-12-18T10:35:22;18.77;;;14.80;;
8777;SDS011;4425;50.872;4.712;2022-12-18T10:38:04;17.13;;;14.60;;
8777;SDS011;4425;50.872;4.712;2022-12-18T10:40:47;16.03;;;14.33;;
8777;SDS011;4425;50.872;4.712;2022-12-18T10:48:48;15.30;;;13.70;;
8777;SDS011;4425;50.872;4.712;2022-12-18T10:51:19;16.83;;;13.70;;
8777;SDS011;4425;50.872;4.712;2022-12-18T10:53:52;15.83;;;14.07;;
8777;SDS011;4425;50.872;4.712;2022-12-18T10:56:24;18.17;;;15.07;;
8777;SDS011;4425;50.872;4.712;2022-12-18T10:59:11;16.53;;;14.70;;
8777;SDS011;4425;50.872;4.712;2022-12-18T11:01:50;15.23;;;13.63;;
8777;SDS011;4425;50.872;4.712;2022-12-18T11:04:23;16.07;;;14.07;;
8777;SDS011;4425;50.872;4.712;2022-12-18T11:06:54;14.80;;;13.30;;
8777;SDS011;4425;50.872;4.712;2022-12-18T11:09:26;16.20;;;14.40;;
8777;SDS011;4425;50.872;4.712;2022-12-18T11:11:55;15.97;;;13.90;;
8777;SDS011;4425;50.872;4.712;2022-12-18T11:14:25;19.67;;;14.40;;
8777;SDS011;4425;50.872;4.712;2022-12-18T11:16:54;17.20;;;14.13;;
8777;SDS011;4425;50.872;4.712;2022-12-18T11:19:31;16.53;;;13.73;;
8777;SDS011;4425;50.872;4.712;2022-12-18T11:22:00;15.83;;;14.13;;
8777;SDS011;4425;50.872;4.712;2022-12-18T11:24:30;17.27;;;14.03;;
8777;SDS011;4425;50.872;4.712;2022-12-18T11:27:00;14.97;;;13.37;;
8777;SDS011;4425;50.872;4.712;2022-12-18T11:29:33;17.60;;;14.33;;
8777;SDS011;4425;50.872;4.712;2022-12-18T11:32:31;16.80;;;15.00;;
8777;SDS011;4425;50.872;4.712;2022-12-18T11:35:04;15.37;;;13.67;;
8777;SDS011;4425;50.872;4.712;2022-12-18T11:37:43;17.03;;;14.63;;
8777;SDS011;4425;50.872;4.712;2022-12-18T11:40:15;18.07;;;15.03;;
8777;SDS011;4425;50.872;4.712;2022-12-18T11:42:48;18.93;;;14.63;;
8777;SDS011;4425;50.872;4.712;2022-12-18T11:45:27;20.83;;;15.60;;
8777;SDS011;4425;50.872;4.712;2022-12-18T11:48:01;16.80;;;14.70;;
8777;SDS011;4425;50.872;4.712;2022-12-18T11:50:37;18.30;;;15.20;;
8777;SDS011;4425;50.872;4.712;2022-12-18T11:53:14;21.30;;;15.50;;
8777;SDS011;4425;50.872;4.712;2022-12-18T11:55:44;17.80;;;15.07;;
8777;SDS011;4425;50.872;4.712;2022-12-18T11:58:29;19.23;;;15.23;;
8777;SDS011;4425;50.872;4.712;2022-12-18T12:01:12;18.30;;;16.07;;
8777;SDS011;4425;50.872;4.712;2022-12-18T12:03:51;18.27;;;15.83;;
8777;SDS011;4425;50.872;4.712;2022-12-18T12:06:37;21.50;;;16.07;;
8777;SDS011;4425;50.872;4.712;2022-12-18T12:09:13;18.80;;;15.50;;
8777;SDS011;4425;50.872;4.712;2022-12-18T12:11:50;21.43;;;16.17;;
8777;SDS011;4425;50.872;4.712;2022-12-18T12:14:32;18.80;;;15.93;;
8777;SDS011;4425;50.872;4.712;2022-12-18T12:17:11;20.20;;;16.83;;
8777;SDS011;4425;50.872;4.712;2022-12-18T12:19:47;19.10;;;15.77;;
8777;SDS011;4425;50.872;4.712;2022-12-18T12:22:27;22.10;;;16.70;;
8777;SDS011;4425;50.872;4.712;2022-12-18T12:25:09;23.33;;;16.87;;
8777;SDS011;4425;50.872;4.712;2022-12-18T12:27:48;20.40;;;15.90;;
8777;SDS011;4425;50.872;4.712;2022-12-18T12:30:26;20.17;;;16.57;;
8777;SDS011;4425;50.872;4.712;2022-12-18T12:33:03;20.47;;;16.93;;
8777;SDS011;4425;50.872;4.712;2022-12-18T12:35:44;21.53;;;16.33;;
8777;SDS011;4425;50.872;4.712;2022-12-18T12:38:20;19.90;;;16.43;;
8777;SDS011;4425;50.872;4.712;2022-12-18T12:40:52;21.00;;;18.27;;
8777;SDS011;4425;50.872;4.712;2022-12-18T12:43:29;22.10;;;17.07;;
8777;SDS011;4425;50.872;4.712;2022-12-18T12:46:02;23.20;;;17.40;;
8777;SDS011;4425;50.872;4.712;2022-12-18T12:48:40;21.73;;;17.80;;
8777;SDS011;4425;50.872;4.712;2022-12-18T12:51:12;21.07;;;17.37;;
8777;SDS011;4425;50.872;4.712;2022-12-18T12:53:46;22.20;;;16.77;;
8777;SDS011;4425;50.872;4.712;2022-12-18T12:56:14;23.13;;;18.17;;
8777;SDS011;4425;50.872;4.712;2022-12-18T12:58:49;20.43;;;16.33;;
8777;SDS011;4425;50.872;4.712;2022-12-18T13:01:28;19.63;;;16.93;;
8777;SDS011;4425;50.872;4.712;2022-12-18T13:04:03;21.70;;;16.87;;
8777;SDS011;4425;50.872;4.712;2022-12-18T13:06:52;22.60;;;17.03;;
8777;SDS011;4425;50.872;4.712;2022-12-18T13:09:32;25.30;;;18.27;;
8777;SDS011;4425;50.872;4.712;2022-12-18T13:12:01;22.20;;;17.77;;
8777;SDS011;4425;50.872;4.712;2022-12-18T13:14:49;21.23;;;16.17;;
8777;SDS011;4425;50.872;4.712;2022-12-18T13:17:27;21.07;;;17.50;;
8777;SDS011;4425;50.872;4.712;2022-12-18T13:20:06;21.27;;;16.70;;
8777;SDS011;4425;50.872;4.712;2022-12-18T13:22:41;20.90;;;16.73;;
8777;SDS011;4425;50.872;4.712;2022-12-18T13:25:30;22.40;;;17.73;;
8777;SDS011;4425;50.872;4.712;2022-12-18T13:28:06;21.10;;;16.20;;
8777;SDS011;4425;50.872;4.712;2022-12-18T13:30:53;19.90;;;16.50;;
8777;SDS011;4425;50.872;4.712;2022-12-18T13:41:52;23.57;;;16.63;;
8777;SDS011;4425;50.872;4.712;2022-12-18T13:45:01;21.07;;;16.57;;
8777;SDS011;4425;50.872;4.712;2022-12-18T13:47:48;22.73;;;16.97;;
8777;SDS011;4425;50.872;4.712;2022-12-18T13:50:20;22.07;;;16.47;;
8777;SDS011;4425;50.872;4.712;2022-12-18T13:52:51;21.53;;;16.20;;
8777;SDS011;4425;50.872;4.712;2022-12-18T13:55:19;21.97;;;16.97;;
8777;SDS011;4425;50.872;4.712;2022-12-18T13:57:50;20.70;;;16.50;;
8777;SDS011;4425;50.872;4.712;2022-12-18T14:00:40;21.90;;;15.70;;
8777;SDS011;4425;50.872;4.712;2022-12-18T14:03:21;21.03;;;16.33;;
8777;SDS011;4425;50.872;4.712;2022-12-18T14:05:55;20.17;;;16.37;;
8777;SDS011;4425;50.872;4.712;2022-12-18T14:08:32;23.97;;;16.90;;
8777;SDS011;4425;50.872;4.712;2022-12-18T14:11:20;20.73;;;16.40;;
8777;SDS011;4425;50.872;4.712;2022-12-18T14:13:54;20.10;;;15.90;;
8777;SDS011;4425;50.872;4.712;2022-12-18T14:16:22;20.30;;;16.73;;
8777;SDS011;4425;50.872;4.712;2022-12-18T14:18:52;22.43;;;17.10;;
8777;SDS011;4425;50.872;4.712;2022-12-18T14:21:30;24.90;;;18.27;;
8777;SDS011;4425;50.872;4.712;2022-12-18T14:24:04;23.20;;;17.87;;
8777;SDS011;4425;50.872;4.712;2022-12-18T14:26:33;25.13;;;18.33;;
8777;SDS011;4425;50.872;4.712;2022-12-18T14:29:18;22.00;;;17.33;;
8777;SDS011;4425;50.872;4.712;2022-12-18T14:32:09;21.93;;;17.23;;
8777;SDS011;4425;50.872;4.712;2022-12-18T14:34:44;22.80;;;17.20;;
8777;SDS011;4425;50.872;4.712;2022-12-18T14:37:14;23.43;;;17.90;;
8777;SDS011;4425;50.872;4.712;2022-12-18T14:42:31;28.67;;;19.03;;
8777;SDS011;4425;50.872;4.712;2022-12-18T14:48:05;22.07;;;18.30;;
8777;SDS011;4425;50.872;4.712;2022-12-18T14:50:37;25.97;;;17.67;;
8777;SDS011;4425;50.872;4.712;2022-12-18T14:53:05;24.23;;;18.70;;
8777;SDS011;4425;50.872;4.712;2022-12-18T14:55:44;25.83;;;18.70;;
8777;SDS011;4425;50.872;4.712;2022-12-18T14:58:14;24.43;;;18.40;;
8777;SDS011;4425;50.872;4.712;2022-12-18T15:00:43;22.97;;;18.13;;
8777;SDS011;4425;50.872;4.712;2022-12-18T15:03:14;24.17;;;18.20;;
8777;SDS011;4425;50.872;4.712;2022-12-18T15:05:46;22.63;;;17.90;;
8777;SDS011;4425;50.872;4.712;2022-12-18T15:08:28;23.67;;;18.63;;
8777;SDS011;4425;50.872;4.712;2022-12-18T15:11:01;23.93;;;18.60;;
8777;SDS011;4425;50.872;4.712;2022-12-18T15:13:29;27.43;;;19.03;;
8777;SDS011;4425;50.872;4.712;2022-12-18T15:15:56;24.53;;;18.63;;
8777;SDS011;4425;50.872;4.712;2022-12-18T15:18:28;27.10;;;19.53;;
8777;SDS011;4425;50.872;4.712;2022-12-18T15:20:58;25.93;;;19.20;;
8777;SDS011;4425;50.872;4.712;2022-12-18T15:23:35;25.60;;;19.93;;
8777;SDS011;4425;50.872;4.712;2022-12-18T15:26:05;27.57;;;20.07;;
8777;SDS011;4425;50.872;4.712;2022-12-18T15:28:36;29.73;;;21.00;;
8777;SDS011;4425;50.872;4.712;2022-12-18T15:31:20;28.70;;;21.43;;
8777;SDS011;4425;50.872;4.712;2022-12-18T15:34:09;27.37;;;20.90;;
8777;SDS011;4425;50.872;4.712;2022-12-18T15:36:47;25.40;;;20.80;;
8777;SDS011;4425;50.872;4.712;2022-12-18T15:39:16;29.27;;;21.80;;
8777;SDS011;4425;50.872;4.712;2022-12-18T15:41:44;27.07;;;19.93;;
8777;SDS011;4425;50.872;4.712;2022-12-18T15:44:25;28.23;;;21.93;;
8777;SDS011;4425;50.872;4.712;2022-12-18T15:46:52;28.20;;;21.57;;